SPEO2: Bird Creek, Sperry, OK

Data processed at Fri Jun 05 2020 22:15


All information presented herein is the property of the government of the United States of America and may be revised or deleted at any time without prior notice.
Dissemination of this information without the expressed written consent of the Public Affairs Office, Tulsa District U.S. Army Corps of Engineers is strictly prohibited.
These data are gathered electronically and, as presented, have not undergone any form of quality control. These data are not guaranteed to be valid or correct.
Go to home page.
Go to station list.
Go to home page.

Upstream stations:

Downstream station:
Previous Day
Next Day
Current Day
    
SHEF ID:       SPEO2     Bird Creek near Sperry, OK
STATION TYPE:  
Regulating: Stage =    21.00, Flow =    11428

               PRECIP     STAGE  STAGE(2)  RIV-FLOW  WTR-TEMP   DIS-OXY        PH   CONDUCT  BAT-LOAD
                   in        ft        ft       cfs         F      mg/l        su   umho/cm      volt
              Ccp-Rev   Ccp-Rev   Ccp-Rev   Ccp-Rev   Ccp-Rev   Ccp-Rev   Ccp-Rev   Ccp-Rev   Ccp-Rev
(US/Central)
06/05 00:00      0.00      2.11      2.02       227     79.83      7.99      7.95       310     12.41
06/05 01:00      0.00      2.11      2.02       227     79.09      7.77      7.89       310     12.41
06/05 02:00      0.00      2.10      2.01       223     78.33      7.34      7.84       310     12.41
06/05 03:00      0.00      2.11      2.02       227     77.59      7.29      7.79       310     12.33
06/05 04:00      0.00      2.10      2.03       223     76.95      6.95      7.76       309     12.33
06/05 05:00      0.00      2.11      2.02       227     76.37      6.86      7.73       309     12.33
06/05 06:00      0.00      2.10      2.02       223     75.92      6.87      7.72       309     12.33
06/05 07:00      0.00      2.10      2.02       223     75.54      6.86      7.71       309     12.33
06/05 08:00      0.00      2.10      2.02       223     75.27      7.02      7.70       309     12.33
06/05 09:00      0.00      2.10      2.02       223     75.16      7.00      7.70       310     12.33
06/05 10:00      0.00      2.09      2.01       219     75.22      6.63      7.70       310     12.89
06/05 11:00      0.00      2.10      2.00       223     75.52      5.92      7.73       310     12.89
06/05 12:00      0.00      2.10      2.00       223     76.01      7.20      7.76       310     12.65
06/05 13:00      0.00      2.10      1.99       223     76.68      7.71      7.79       310     12.57
06/05 14:00      0.00      2.10      1.99       223     77.38      7.92      7.83       310     12.65
06/05 15:00      0.00      2.09      1.99       219     78.15      8.27      7.87       311     12.65
06/05 16:00      0.00      2.09      1.98       219     78.91      8.46      7.90       311     12.57
06/05 17:00      0.00      2.09      1.98       219     79.59      8.73      7.94       311     12.57
06/05 18:00      0.00      2.09      1.98       219     80.15      8.21      7.95       312     12.65
06/05 19:00      0.00      2.09      1.97       219     80.60      8.16      7.94       312     12.49
06/05 20:00      0.00      2.09      1.98       219     80.96      8.02      7.93       313     12.57
06/05 21:00      0.00      2.08      1.98       215     81.14      7.77      7.91       313     12.49
06/05 22:00      ----      ----      ----      ----      ----      ----      ----      ----      ----
06/05 23:00      ----      ----      ----      ----      ----      ----      ----      ----      ----